sensor_id;sensor_type;location;lat;lon;timestamp;pressure;altitude;pressure_sealevel;temperature;humidity
3096;BME280;1558;42.700;23.360;2022-08-19T00:01:27;95019.63;;;22.29;73.28
3096;BME280;1558;42.700;23.360;2022-08-19T00:03:57;94923.53;;;21.61;74.12
3096;BME280;1558;42.700;23.360;2022-08-19T00:06:26;95027.50;;;22.27;74.81
3096;BME280;1558;42.700;23.360;2022-08-19T00:08:56;95042.75;;;22.31;75.51
3096;BME280;1558;42.700;23.360;2022-08-19T00:11:27;95028.59;;;22.33;76.23
3096;BME280;1558;42.700;23.360;2022-08-19T00:13:57;95036.66;;;22.16;77.11
3096;BME280;1558;42.700;23.360;2022-08-19T00:16:26;95037.47;;;22.13;78.01
3096;BME280;1558;42.700;23.360;2022-08-19T00:18:55;95040.69;;;22.08;77.74
3096;BME280;1558;42.700;23.360;2022-08-19T00:21:24;95041.81;;;22.11;78.36
3096;BME280;1558;42.700;23.360;2022-08-19T00:23:53;95047.66;;;22.16;78.26
3096;BME280;1558;42.700;23.360;2022-08-19T00:26:24;95048.91;;;22.08;78.55
3096;BME280;1558;42.700;23.360;2022-08-19T00:28:52;95044.81;;;21.93;79.25
3096;BME280;1558;42.700;23.360;2022-08-19T00:31:22;95051.88;;;21.91;79.84
3096;BME280;1558;42.700;23.360;2022-08-19T00:33:52;95053.41;;;21.95;79.66
3096;BME280;1558;42.700;23.360;2022-08-19T00:36:20;95046.03;;;21.89;79.58
3096;BME280;1558;42.700;23.360;2022-08-19T00:38:48;94997.97;;;21.70;79.79
3096;BME280;1558;42.700;23.360;2022-08-19T00:41:20;95037.66;;;21.99;79.16
3096;BME280;1558;42.700;23.360;2022-08-19T00:43:57;95033.72;;;22.00;79.67
3096;BME280;1558;42.700;23.360;2022-08-19T00:46:28;95028.34;;;21.90;78.68
3096;BME280;1558;42.700;23.360;2022-08-19T00:48:56;94994.75;;;21.41;78.63
3096;BME280;1558;42.700;23.360;2022-08-19T00:51:26;95037.25;;;21.64;79.08
3096;BME280;1558;42.700;23.360;2022-08-19T00:53:57;94995.13;;;21.43;79.49
3096;BME280;1558;42.700;23.360;2022-08-19T00:56:27;95036.78;;;21.72;79.03
3096;BME280;1558;42.700;23.360;2022-08-19T00:58:58;95033.25;;;21.68;79.78
3096;BME280;1558;42.700;23.360;2022-08-19T01:01:29;95040.13;;;21.53;79.51
3096;BME280;1558;42.700;23.360;2022-08-19T01:03:58;95038.22;;;21.46;80.39
3096;BME280;1558;42.700;23.360;2022-08-19T01:06:26;95039.19;;;21.26;80.49
3096;BME280;1558;42.700;23.360;2022-08-19T01:08:55;95045.53;;;21.16;82.08
3096;BME280;1558;42.700;23.360;2022-08-19T01:11:23;95047.91;;;21.14;82.87
3096;BME280;1558;42.700;23.360;2022-08-19T01:13:52;95048.78;;;21.00;83.98
3096;BME280;1558;42.700;23.360;2022-08-19T01:16:31;95004.41;;;20.64;84.87
3096;BME280;1558;42.700;23.360;2022-08-19T01:19:09;95048.53;;;20.80;86.05
3096;BME280;1558;42.700;23.360;2022-08-19T01:21:46;94984.94;;;20.45;86.29
3096;BME280;1558;42.700;23.360;2022-08-19T01:24:17;95045.72;;;20.91;87.09
3096;BME280;1558;42.700;23.360;2022-08-19T01:26:46;94951.38;;;20.37;87.06
3096;BME280;1558;42.700;23.360;2022-08-19T01:29:16;95044.09;;;20.97;87.06
3096;BME280;1558;42.700;23.360;2022-08-19T01:31:46;94692.81;;;18.38;87.05
3096;BME280;1558;42.700;23.360;2022-08-19T01:34:19;95029.59;;;20.45;88.30
3096;BME280;1558;42.700;23.360;2022-08-19T01:36:48;94848.66;;;19.32;88.97
3096;BME280;1558;42.700;23.360;2022-08-19T01:39:23;95036.59;;;20.53;88.94
3096;BME280;1558;42.700;23.360;2022-08-19T01:42:16;95030.03;;;20.37;88.99
3096;BME280;1558;42.700;23.360;2022-08-19T01:45:02;94994.94;;;20.07;89.00
3096;BME280;1558;42.700;23.360;2022-08-19T01:47:40;95048.44;;;20.36;88.81
3096;BME280;1558;42.700;23.360;2022-08-19T01:50:28;95053.09;;;20.43;88.51
3096;BME280;1558;42.700;23.360;2022-08-19T01:52:58;95044.41;;;20.55;88.89
3096;BME280;1558;42.700;23.360;2022-08-19T01:55:37;95011.97;;;20.46;88.35
3096;BME280;1558;42.700;23.360;2022-08-19T01:58:23;95038.81;;;20.72;87.95
3096;BME280;1558;42.700;23.360;2022-08-19T02:01:10;95045.78;;;20.80;87.85
3096;BME280;1558;42.700;23.360;2022-08-19T02:03:44;95037.03;;;21.00;86.79
3096;BME280;1558;42.700;23.360;2022-08-19T02:06:26;94930.97;;;20.38;86.21
3096;BME280;1558;42.700;23.360;2022-08-19T02:08:58;95044.44;;;21.10;86.74
3096;BME280;1558;42.700;23.360;2022-08-19T02:12:02;95042.41;;;21.14;86.72
3096;BME280;1558;42.700;23.360;2022-08-19T02:14:37;95042.03;;;21.15;86.83
3096;BME280;1558;42.700;23.360;2022-08-19T02:17:06;95049.56;;;21.01;86.94
3096;BME280;1558;42.700;23.360;2022-08-19T02:20:05;95049.94;;;20.99;88.20
3096;BME280;1558;42.700;23.360;2022-08-19T02:22:50;95045.28;;;20.96;87.52
3096;BME280;1558;42.700;23.360;2022-08-19T02:25:25;95044.63;;;20.78;87.64
3096;BME280;1558;42.700;23.360;2022-08-19T02:28:02;95047.41;;;20.71;87.82
3096;BME280;1558;42.700;23.360;2022-08-19T02:30:53;95038.81;;;20.69;87.84
3096;BME280;1558;42.700;23.360;2022-08-19T02:33:46;95048.28;;;20.61;87.50
3096;BME280;1558;42.700;23.360;2022-08-19T02:36:24;95053.13;;;20.39;88.19
3096;BME280;1558;42.700;23.360;2022-08-19T02:38:59;94948.53;;;19.79;88.66
3096;BME280;1558;42.700;23.360;2022-08-19T02:41:35;95050.78;;;20.34;88.80
3096;BME280;1558;42.700;23.360;2022-08-19T02:44:10;95051.63;;;20.24;89.60
3096;BME280;1558;42.700;23.360;2022-08-19T02:46:57;95045.34;;;20.20;89.47
3096;BME280;1558;42.700;23.360;2022-08-19T02:49:35;95045.34;;;20.20;90.32
3096;BME280;1558;42.700;23.360;2022-08-19T02:55:24;95055.94;;;20.18;90.27
3096;BME280;1558;42.700;23.360;2022-08-19T02:58:21;95060.72;;;19.96;91.15
3096;BME280;1558;42.700;23.360;2022-08-19T03:01:38;95062.72;;;19.82;92.96
3096;BME280;1558;42.700;23.360;2022-08-19T03:04:14;95054.91;;;19.73;93.72
3096;BME280;1558;42.700;23.360;2022-08-19T03:06:56;95059.66;;;19.66;95.21
3096;BME280;1558;42.700;23.360;2022-08-19T03:09:37;95058.44;;;19.67;95.14
3096;BME280;1558;42.700;23.360;2022-08-19T03:12:24;95057.28;;;19.64;96.44
3096;BME280;1558;42.700;23.360;2022-08-19T03:15:12;95045.19;;;19.54;97.44
3096;BME280;1558;42.700;23.360;2022-08-19T03:21:44;95046.72;;;19.66;96.99
3096;BME280;1558;42.700;23.360;2022-08-19T03:24:17;95044.38;;;19.72;97.12
3096;BME280;1558;42.700;23.360;2022-08-19T03:27:06;95041.66;;;19.68;96.95
3096;BME280;1558;42.700;23.360;2022-08-19T03:29:43;95051.81;;;19.68;97.55
3096;BME280;1558;42.700;23.360;2022-08-19T03:39:39;95062.69;;;19.89;96.42
3096;BME280;1558;42.700;23.360;2022-08-19T03:46:40;95061.22;;;19.59;99.23
3096;BME280;1558;42.700;23.360;2022-08-19T03:49:10;95075.25;;;19.69;98.75
3096;BME280;1558;42.700;23.360;2022-08-19T03:52:13;95078.81;;;19.58;98.95
3096;BME280;1558;42.700;23.360;2022-08-19T03:54:51;95080.75;;;19.62;99.69
3096;BME280;1558;42.700;23.360;2022-08-19T03:57:27;95082.31;;;19.70;99.67
3096;BME280;1558;42.700;23.360;2022-08-19T04:03:01;95088.16;;;19.82;98.89
3096;BME280;1558;42.700;23.360;2022-08-19T04:05:34;95082.66;;;19.86;98.81
3096;BME280;1558;42.700;23.360;2022-08-19T04:08:05;95087.72;;;19.87;98.69
3096;BME280;1558;42.700;23.360;2022-08-19T04:10:45;95090.81;;;20.00;98.50
3096;BME280;1558;42.700;23.360;2022-08-19T04:13:20;95096.63;;;20.23;97.60
3096;BME280;1558;42.700;23.360;2022-08-19T04:15:49;95101.63;;;20.42;96.06
3096;BME280;1558;42.700;23.360;2022-08-19T04:18:21;95088.28;;;20.48;95.18
3096;BME280;1558;42.700;23.360;2022-08-19T04:20:51;95083.59;;;20.48;94.87
3096;BME280;1558;42.700;23.360;2022-08-19T04:23:19;95100.34;;;20.68;94.13
3096;BME280;1558;42.700;23.360;2022-08-19T04:25:50;95098.50;;;21.57;90.78
3096;BME280;1558;42.700;23.360;2022-08-19T04:28:24;95109.97;;;22.27;86.22
3096;BME280;1558;42.700;23.360;2022-08-19T04:30:57;95095.00;;;22.61;83.01
3096;BME280;1558;42.700;23.360;2022-08-19T04:33:25;95099.91;;;22.77;81.12
3096;BME280;1558;42.700;23.360;2022-08-19T04:35:54;95060.44;;;22.60;79.39
3096;BME280;1558;42.700;23.360;2022-08-19T04:38:25;95104.47;;;23.14;77.85
3096;BME280;1558;42.700;23.360;2022-08-19T04:41:02;95102.91;;;23.39;75.53
3096;BME280;1558;42.700;23.360;2022-08-19T04:43:50;95099.69;;;23.44;75.34
3096;BME280;1558;42.700;23.360;2022-08-19T04:46:21;95102.06;;;23.66;74.50
3096;BME280;1558;42.700;23.360;2022-08-19T04:49:07;95100.41;;;23.48;73.51
3096;BME280;1558;42.700;23.360;2022-08-19T04:51:46;95037.75;;;23.06;74.20
3096;BME280;1558;42.700;23.360;2022-08-19T04:54:18;95096.63;;;24.05;73.19
3096;BME280;1558;42.700;23.360;2022-08-19T04:57:11;95096.88;;;24.53;70.21
3096;BME280;1558;42.700;23.360;2022-08-19T05:00:04;95104.00;;;24.70;69.33
3096;BME280;1558;42.700;23.360;2022-08-19T05:02:35;95103.50;;;24.75;67.93
3096;BME280;1558;42.700;23.360;2022-08-19T05:05:07;95108.38;;;24.87;67.48
3096;BME280;1558;42.700;23.360;2022-08-19T05:07:45;95108.47;;;25.20;67.01
3096;BME280;1558;42.700;23.360;2022-08-19T05:10:17;95113.16;;;25.55;65.67
3096;BME280;1558;42.700;23.360;2022-08-19T05:13:00;95105.88;;;25.61;64.67
3096;BME280;1558;42.700;23.360;2022-08-19T05:16:01;95111.34;;;24.97;65.55
3096;BME280;1558;42.700;23.360;2022-08-19T05:18:42;95108.38;;;24.68;67.20
3096;BME280;1558;42.700;23.360;2022-08-19T05:21:43;95109.81;;;25.28;66.17
3096;BME280;1558;42.700;23.360;2022-08-19T05:24:38;95112.09;;;25.81;64.01
3096;BME280;1558;42.700;23.360;2022-08-19T05:27:43;95109.00;;;26.53;63.04
3096;BME280;1558;42.700;23.360;2022-08-19T05:30:34;95112.50;;;26.82;61.06
3096;BME280;1558;42.700;23.360;2022-08-19T05:33:16;95113.75;;;27.19;59.96
3096;BME280;1558;42.700;23.360;2022-08-19T05:35:59;95108.78;;;27.51;59.14
3096;BME280;1558;42.700;23.360;2022-08-19T05:38:42;94884.41;;;26.29;57.86
3096;BME280;1558;42.700;23.360;2022-08-19T05:41:17;95112.75;;;27.63;57.40
3096;BME280;1558;42.700;23.360;2022-08-19T05:43:47;95114.72;;;27.88;57.01
3096;BME280;1558;42.700;23.360;2022-08-19T05:46:57;95108.38;;;28.00;56.69
3096;BME280;1558;42.700;23.360;2022-08-19T05:49:24;95079.75;;;27.31;56.53
3096;BME280;1558;42.700;23.360;2022-08-19T05:52:02;95104.91;;;27.24;57.94
3096;BME280;1558;42.700;23.360;2022-08-19T05:54:54;95109.19;;;27.75;57.37
3096;BME280;1558;42.700;23.360;2022-08-19T06:00:31;95079.88;;;27.87;56.83
3096;BME280;1558;42.700;23.360;2022-08-19T06:03:15;95112.72;;;28.78;53.87
3096;BME280;1558;42.700;23.360;2022-08-19T06:05:57;95105.84;;;28.49;54.38
3096;BME280;1558;42.700;23.360;2022-08-19T06:08:33;95110.16;;;28.28;54.67
3096;BME280;1558;42.700;23.360;2022-08-19T06:11:32;95113.81;;;28.03;55.42
3096;BME280;1558;42.700;23.360;2022-08-19T06:17:26;95114.69;;;28.35;55.79
3096;BME280;1558;42.700;23.360;2022-08-19T06:19:59;95120.19;;;28.47;55.04
3096;BME280;1558;42.700;23.360;2022-08-19T06:22:30;95126.00;;;28.40;54.37
3096;BME280;1558;42.700;23.360;2022-08-19T06:24:58;95052.84;;;28.12;53.43
3096;BME280;1558;42.700;23.360;2022-08-19T06:27:27;95119.81;;;28.79;53.40
3096;BME280;1558;42.700;23.360;2022-08-19T06:29:57;95117.81;;;29.11;52.82
3096;BME280;1558;42.700;23.360;2022-08-19T06:32:26;95124.72;;;29.68;51.40
3096;BME280;1558;42.700;23.360;2022-08-19T06:34:56;95119.69;;;29.93;50.83
3096;BME280;1558;42.700;23.360;2022-08-19T06:37:26;95124.22;;;30.09;49.80
3096;BME280;1558;42.700;23.360;2022-08-19T06:39:54;95123.75;;;30.01;49.36
3096;BME280;1558;42.700;23.360;2022-08-19T06:42:22;95123.28;;;30.03;49.43
3096;BME280;1558;42.700;23.360;2022-08-19T06:44:50;95091.56;;;30.00;48.24
3096;BME280;1558;42.700;23.360;2022-08-19T06:47:21;95073.31;;;29.81;48.24
3096;BME280;1558;42.700;23.360;2022-08-19T06:49:55;95126.88;;;30.58;48.28
3096;BME280;1558;42.700;23.360;2022-08-19T06:52:28;95118.69;;;30.63;48.14
3096;BME280;1558;42.700;23.360;2022-08-19T06:54:59;95118.53;;;30.49;47.67
3096;BME280;1558;42.700;23.360;2022-08-19T06:57:32;95120.53;;;30.66;47.97
3096;BME280;1558;42.700;23.360;2022-08-19T07:00:01;95126.88;;;30.49;47.08
3096;BME280;1558;42.700;23.360;2022-08-19T07:02:32;95130.88;;;30.84;46.27
3096;BME280;1558;42.700;23.360;2022-08-19T07:05:07;95124.09;;;30.67;46.50
3096;BME280;1558;42.700;23.360;2022-08-19T07:07:37;95042.56;;;29.85;47.86
3096;BME280;1558;42.700;23.360;2022-08-19T07:10:09;95133.50;;;30.88;46.86
3096;BME280;1558;42.700;23.360;2022-08-19T07:12:37;95132.38;;;31.12;46.31
3096;BME280;1558;42.700;23.360;2022-08-19T07:15:08;95132.38;;;31.12;45.75
3096;BME280;1558;42.700;23.360;2022-08-19T07:17:37;95136.59;;;31.59;45.24
3096;BME280;1558;42.700;23.360;2022-08-19T07:20:09;95119.22;;;31.64;44.77
3096;BME280;1558;42.700;23.360;2022-08-19T07:22:39;95128.88;;;30.94;46.16
3096;BME280;1558;42.700;23.360;2022-08-19T07:25:09;95079.88;;;30.42;46.34
3096;BME280;1558;42.700;23.360;2022-08-19T07:27:37;95136.38;;;31.29;45.49
3096;BME280;1558;42.700;23.360;2022-08-19T07:30:07;95121.09;;;32.38;43.88
3096;BME280;1558;42.700;23.360;2022-08-19T07:32:37;95102.78;;;31.89;42.99
3096;BME280;1558;42.700;23.360;2022-08-19T07:35:07;95115.19;;;32.21;43.09
3096;BME280;1558;42.700;23.360;2022-08-19T07:37:37;95123.19;;;32.28;42.68
3096;BME280;1558;42.700;23.360;2022-08-19T07:40:11;95114.81;;;32.81;41.30
3096;BME280;1558;42.700;23.360;2022-08-19T07:42:40;95115.25;;;33.03;40.64
3096;BME280;1558;42.700;23.360;2022-08-19T07:45:09;95121.91;;;32.29;42.16
3096;BME280;1558;42.700;23.360;2022-08-19T07:47:38;95085.00;;;32.49;41.29
3096;BME280;1558;42.700;23.360;2022-08-19T07:50:17;95072.13;;;32.95;41.06
3096;BME280;1558;42.700;23.360;2022-08-19T07:52:48;95126.34;;;33.56;40.08
3096;BME280;1558;42.700;23.360;2022-08-19T07:55:19;95114.53;;;33.52;39.54
3096;BME280;1558;42.700;23.360;2022-08-19T07:58:08;95124.19;;;33.51;39.12
3096;BME280;1558;42.700;23.360;2022-08-19T08:00:36;95116.38;;;33.26;39.41
3096;BME280;1558;42.700;23.360;2022-08-19T08:03:06;95121.09;;;33.49;39.53
3096;BME280;1558;42.700;23.360;2022-08-19T08:05:39;95118.22;;;33.93;39.15
3096;BME280;1558;42.700;23.360;2022-08-19T08:08:27;95116.28;;;33.99;37.67
3096;BME280;1558;42.700;23.360;2022-08-19T08:11:15;95050.94;;;33.18;39.00
3096;BME280;1558;42.700;23.360;2022-08-19T08:13:47;95113.22;;;34.57;37.67
3096;BME280;1558;42.700;23.360;2022-08-19T08:16:28;95110.50;;;34.23;37.57
3096;BME280;1558;42.700;23.360;2022-08-19T08:18:58;95108.53;;;34.29;37.66
3096;BME280;1558;42.700;23.360;2022-08-19T08:21:27;95102.03;;;34.17;37.66
3096;BME280;1558;42.700;23.360;2022-08-19T08:23:57;95110.22;;;34.21;37.62
3096;BME280;1558;42.700;23.360;2022-08-19T08:26:31;95067.06;;;34.13;37.19
3096;BME280;1558;42.700;23.360;2022-08-19T08:29:00;95102.28;;;35.05;36.35
3096;BME280;1558;42.700;23.360;2022-08-19T08:31:39;95073.41;;;35.62;36.01
3096;BME280;1558;42.700;23.360;2022-08-19T08:34:09;94984.63;;;35.33;35.24
3096;BME280;1558;42.700;23.360;2022-08-19T08:36:41;94910.09;;;34.53;34.13
3096;BME280;1558;42.700;23.360;2022-08-19T08:39:15;95084.31;;;34.97;35.14
3096;BME280;1558;42.700;23.360;2022-08-19T08:41:49;95092.66;;;35.43;36.30
3096;BME280;1558;42.700;23.360;2022-08-19T08:44:31;95085.25;;;36.19;34.76
3096;BME280;1558;42.700;23.360;2022-08-19T08:47:12;95000.53;;;35.05;35.08
3096;BME280;1558;42.700;23.360;2022-08-19T08:49:45;95094.81;;;35.96;34.68
3096;BME280;1558;42.700;23.360;2022-08-19T08:52:20;95084.28;;;35.85;34.42
3096;BME280;1558;42.700;23.360;2022-08-19T08:54:54;95076.25;;;36.10;34.19
3096;BME280;1558;42.700;23.360;2022-08-19T08:57:27;95075.31;;;36.24;33.58
3096;BME280;1558;42.700;23.360;2022-08-19T09:00:08;95054.78;;;36.65;33.73
3096;BME280;1558;42.700;23.360;2022-08-19T09:02:41;95029.72;;;36.90;32.13
3096;BME280;1558;42.700;23.360;2022-08-19T09:05:10;95073.78;;;37.26;31.74
3096;BME280;1558;42.700;23.360;2022-08-19T09:07:48;94980.09;;;36.76;30.35
3096;BME280;1558;42.700;23.360;2022-08-19T09:10:29;95060.28;;;35.90;31.91
3096;BME280;1558;42.700;23.360;2022-08-19T09:13:16;95059.06;;;36.50;32.70
3096;BME280;1558;42.700;23.360;2022-08-19T09:15:53;95019.25;;;36.85;31.34
3096;BME280;1558;42.700;23.360;2022-08-19T09:18:22;95031.53;;;36.82;31.04
3096;BME280;1558;42.700;23.360;2022-08-19T09:20:55;95057.41;;;37.36;31.23
3096;BME280;1558;42.700;23.360;2022-08-19T09:23:23;95059.44;;;37.35;29.66
3096;BME280;1558;42.700;23.360;2022-08-19T09:25:54;95055.56;;;36.88;29.87
3096;BME280;1558;42.700;23.360;2022-08-19T09:28:24;95050.22;;;37.23;28.97
3096;BME280;1558;42.700;23.360;2022-08-19T09:30:53;95036.38;;;37.75;28.88
3096;BME280;1558;42.700;23.360;2022-08-19T09:33:21;95034.88;;;37.30;28.14
3096;BME280;1558;42.700;23.360;2022-08-19T09:36:02;95044.09;;;37.47;28.64
3096;BME280;1558;42.700;23.360;2022-08-19T09:38:34;95027.41;;;37.77;28.12
3096;BME280;1558;42.700;23.360;2022-08-19T09:41:12;95040.66;;;38.67;26.86
3096;BME280;1558;42.700;23.360;2022-08-19T09:43:42;95033.38;;;38.36;26.38
3096;BME280;1558;42.700;23.360;2022-08-19T09:46:14;94997.91;;;37.94;26.20
3096;BME280;1558;42.700;23.360;2022-08-19T09:48:44;95040.03;;;37.54;26.70
3096;BME280;1558;42.700;23.360;2022-08-19T09:51:17;95038.69;;;37.66;26.30
3096;BME280;1558;42.700;23.360;2022-08-19T09:53:49;95033.69;;;38.68;26.18
3096;BME280;1558;42.700;23.360;2022-08-19T09:56:20;94883.25;;;38.19;24.97
3096;BME280;1558;42.700;23.360;2022-08-19T09:58:50;95021.53;;;39.25;24.60
3096;BME280;1558;42.700;23.360;2022-08-19T10:01:21;95016.91;;;39.52;23.78
3096;BME280;1558;42.700;23.360;2022-08-19T10:03:51;95025.28;;;39.39;23.94
3096;BME280;1558;42.700;23.360;2022-08-19T10:06:22;95014.63;;;39.20;23.92
3096;BME280;1558;42.700;23.360;2022-08-19T10:09:10;95005.34;;;39.25;24.37
3096;BME280;1558;42.700;23.360;2022-08-19T10:11:42;94952.31;;;39.13;23.80
3096;BME280;1558;42.700;23.360;2022-08-19T10:14:20;95019.56;;;39.74;23.46
3096;BME280;1558;42.700;23.360;2022-08-19T10:16:50;94931.59;;;39.05;24.60
3096;BME280;1558;42.700;23.360;2022-08-19T10:19:19;94997.38;;;39.30;24.10
3096;BME280;1558;42.700;23.360;2022-08-19T10:21:52;94923.25;;;38.94;24.67
3096;BME280;1558;42.700;23.360;2022-08-19T10:24:26;94877.53;;;37.89;25.34
3096;BME280;1558;42.700;23.360;2022-08-19T10:26:57;95002.13;;;38.75;25.44
3096;BME280;1558;42.700;23.360;2022-08-19T10:29:25;94951.53;;;38.83;25.44
3096;BME280;1558;42.700;23.360;2022-08-19T10:31:59;94833.22;;;37.90;25.44
3096;BME280;1558;42.700;23.360;2022-08-19T10:34:29;94882.03;;;37.57;25.45
3096;BME280;1558;42.700;23.360;2022-08-19T10:36:58;94995.94;;;38.82;25.08
3096;BME280;1558;42.700;23.360;2022-08-19T10:39:28;94979.44;;;39.27;24.92
3096;BME280;1558;42.700;23.360;2022-08-19T10:42:04;94883.56;;;38.51;23.82
3096;BME280;1558;42.700;23.360;2022-08-19T10:44:33;94990.16;;;38.12;25.58
3096;BME280;1558;42.700;23.360;2022-08-19T10:47:02;94988.66;;;38.57;25.65
3096;BME280;1558;42.700;23.360;2022-08-19T10:49:43;94987.03;;;39.08;24.84
3096;BME280;1558;42.700;23.360;2022-08-19T10:52:31;94972.47;;;38.63;25.13
3096;BME280;1558;42.700;23.360;2022-08-19T10:55:06;94892.50;;;38.14;25.39
3096;BME280;1558;42.700;23.360;2022-08-19T10:57:57;94977.75;;;38.78;25.39
3096;BME280;1558;42.700;23.360;2022-08-19T11:00:28;94981.16;;;38.65;25.06
3096;BME280;1558;42.700;23.360;2022-08-19T11:02:58;94978.09;;;39.34;24.63
3096;BME280;1558;42.700;23.360;2022-08-19T11:05:26;94973.13;;;40.31;24.33
3096;BME280;1558;42.700;23.360;2022-08-19T11:07:55;94973.91;;;40.31;23.35
3096;BME280;1558;42.700;23.360;2022-08-19T11:10:24;94975.56;;;40.03;23.32
3096;BME280;1558;42.700;23.360;2022-08-19T11:12:52;94972.97;;;39.32;24.86
3096;BME280;1558;42.700;23.360;2022-08-19T11:15:22;94968.56;;;39.61;24.63
3096;BME280;1558;42.700;23.360;2022-08-19T11:17:51;94966.31;;;40.21;24.21
3096;BME280;1558;42.700;23.360;2022-08-19T11:20:21;94937.13;;;39.46;24.28
3096;BME280;1558;42.700;23.360;2022-08-19T11:22:51;94966.69;;;39.15;24.80
3096;BME280;1558;42.700;23.360;2022-08-19T11:25:20;94963.81;;;39.20;24.74
3096;BME280;1558;42.700;23.360;2022-08-19T11:27:48;94964.66;;;38.80;24.91
3096;BME280;1558;42.700;23.360;2022-08-19T11:30:17;94843.97;;;38.32;24.20
3096;BME280;1558;42.700;23.360;2022-08-19T11:32:47;94952.13;;;37.66;25.58
3096;BME280;1558;42.700;23.360;2022-08-19T11:35:15;94952.97;;;38.19;25.60
3096;BME280;1558;42.700;23.360;2022-08-19T11:37:46;94945.13;;;38.82;25.28
3096;BME280;1558;42.700;23.360;2022-08-19T11:40:14;94950.88;;;39.31;23.55
3096;BME280;1558;42.700;23.360;2022-08-19T11:42:42;94943.53;;;39.22;24.63
3096;BME280;1558;42.700;23.360;2022-08-19T11:45:25;94939.13;;;39.27;24.16
3096;BME280;1558;42.700;23.360;2022-08-19T11:47:55;94935.31;;;39.72;24.44
3096;BME280;1558;42.700;23.360;2022-08-19T11:50:24;94932.09;;;39.63;24.38
3096;BME280;1558;42.700;23.360;2022-08-19T11:52:54;94932.31;;;40.08;23.69
3096;BME280;1558;42.700;23.360;2022-08-19T11:55:22;94898.63;;;39.67;24.14
3096;BME280;1558;42.700;23.360;2022-08-19T11:57:51;94869.56;;;38.70;23.94
3096;BME280;1558;42.700;23.360;2022-08-19T12:00:19;94925.47;;;38.36;24.79
3096;BME280;1558;42.700;23.360;2022-08-19T12:02:48;94924.66;;;38.76;24.60
3096;BME280;1558;42.700;23.360;2022-08-19T12:05:18;94917.28;;;39.75;23.94
3096;BME280;1558;42.700;23.360;2022-08-19T12:07:46;94911.22;;;40.78;22.61
3096;BME280;1558;42.700;23.360;2022-08-19T12:10:15;94910.72;;;40.61;23.26
3096;BME280;1558;42.700;23.360;2022-08-19T12:12:46;94888.00;;;40.66;22.74
3096;BME280;1558;42.700;23.360;2022-08-19T12:15:24;94899.28;;;40.53;22.41
3096;BME280;1558;42.700;23.360;2022-08-19T12:18:03;94844.09;;;39.05;23.84
3096;BME280;1558;42.700;23.360;2022-08-19T12:20:34;94891.72;;;38.90;24.28
3096;BME280;1558;42.700;23.360;2022-08-19T12:23:04;94891.84;;;38.73;25.00
3096;BME280;1558;42.700;23.360;2022-08-19T12:25:32;94860.66;;;39.19;24.77
3096;BME280;1558;42.700;23.360;2022-08-19T12:28:01;94894.38;;;39.06;24.29
3096;BME280;1558;42.700;23.360;2022-08-19T12:30:30;94888.97;;;38.84;24.77
3096;BME280;1558;42.700;23.360;2022-08-19T12:32:58;94888.94;;;39.08;24.68
3096;BME280;1558;42.700;23.360;2022-08-19T12:35:26;94889.06;;;38.97;24.82
3096;BME280;1558;42.700;23.360;2022-08-19T12:37:56;94877.75;;;38.38;24.79
3096;BME280;1558;42.700;23.360;2022-08-19T12:40:25;94880.38;;;37.78;25.97
3096;BME280;1558;42.700;23.360;2022-08-19T12:42:53;94872.16;;;37.91;26.14
3096;BME280;1558;42.700;23.360;2022-08-19T12:45:21;94808.97;;;38.11;26.05
3096;BME280;1558;42.700;23.360;2022-08-19T12:47:50;94872.59;;;38.42;25.33
3096;BME280;1558;42.700;23.360;2022-08-19T12:50:21;94729.22;;;37.51;25.27
3096;BME280;1558;42.700;23.360;2022-08-19T12:52:49;94865.34;;;38.52;25.23
3096;BME280;1558;42.700;23.360;2022-08-19T12:55:19;94861.69;;;38.27;25.49
3096;BME280;1558;42.700;23.360;2022-08-19T12:57:48;94857.66;;;38.12;25.35
3096;BME280;1558;42.700;23.360;2022-08-19T13:00:18;94857.97;;;38.08;26.11
3096;BME280;1558;42.700;23.360;2022-08-19T13:02:50;94860.97;;;38.16;25.90
3096;BME280;1558;42.700;23.360;2022-08-19T13:05:20;94860.13;;;38.26;25.65
3096;BME280;1558;42.700;23.360;2022-08-19T13:07:50;94834.88;;;38.10;25.80
3096;BME280;1558;42.700;23.360;2022-08-19T13:10:22;94860.91;;;38.27;25.56
3096;BME280;1558;42.700;23.360;2022-08-19T13:12:51;94858.41;;;38.18;25.76
3096;BME280;1558;42.700;23.360;2022-08-19T13:15:21;94804.91;;;38.07;25.60
3096;BME280;1558;42.700;23.360;2022-08-19T13:17:52;94868.78;;;37.99;25.52
3096;BME280;1558;42.700;23.360;2022-08-19T13:20:21;94848.53;;;37.43;26.01
3096;BME280;1558;42.700;23.360;2022-08-19T13:22:49;94681.13;;;36.01;26.94
3096;BME280;1558;42.700;23.360;2022-08-19T13:25:18;94849.44;;;36.99;26.97
3096;BME280;1558;42.700;23.360;2022-08-19T13:27:49;94787.13;;;36.39;26.62
3096;BME280;1558;42.700;23.360;2022-08-19T13:30:20;94815.75;;;36.32;26.88
3096;BME280;1558;42.700;23.360;2022-08-19T13:33:07;94861.47;;;36.27;27.51
3096;BME280;1558;42.700;23.360;2022-08-19T13:35:44;94625.09;;;34.87;27.26
3096;BME280;1558;42.700;23.360;2022-08-19T13:38:14;94783.91;;;35.49;28.04
3096;BME280;1558;42.700;23.360;2022-08-19T13:40:43;94835.81;;;35.81;28.00
3096;BME280;1558;42.700;23.360;2022-08-19T13:43:14;94732.88;;;35.39;27.62
3096;BME280;1558;42.700;23.360;2022-08-19T13:45:50;94826.97;;;35.99;28.17
3096;BME280;1558;42.700;23.360;2022-08-19T13:48:24;94823.06;;;35.80;27.69
3096;BME280;1558;42.700;23.360;2022-08-19T13:50:54;94818.97;;;35.81;27.73
3096;BME280;1558;42.700;23.360;2022-08-19T13:53:23;94737.41;;;35.20;28.47
3096;BME280;1558;42.700;23.360;2022-08-19T13:55:52;94608.53;;;34.24;28.68
3096;BME280;1558;42.700;23.360;2022-08-19T13:58:22;94725.41;;;35.08;28.75
3096;BME280;1558;42.700;23.360;2022-08-19T14:00:50;94811.28;;;35.54;28.59
3096;BME280;1558;42.700;23.360;2022-08-19T14:03:19;94796.38;;;35.36;28.44
3096;BME280;1558;42.700;23.360;2022-08-19T14:05:48;94805.41;;;35.63;28.81
3096;BME280;1558;42.700;23.360;2022-08-19T14:08:16;94798.69;;;35.38;28.31
3096;BME280;1558;42.700;23.360;2022-08-19T14:10:45;94802.28;;;35.50;28.83
3096;BME280;1558;42.700;23.360;2022-08-19T14:13:18;94809.50;;;35.56;28.90
3096;BME280;1558;42.700;23.360;2022-08-19T14:15:48;94583.53;;;34.15;28.73